Time;durP1;ratioP1;P1;durP2;ratioP2;P2;SDS_P1;SDS_P2;PMS_P1;PMS_P2;Temp;Humidity;BMP_temperature;BMP_pressure;BME280_temperature;BME280_humidity;BME280_pressure;Samples;Min_cycle;Max_cycle;Signal;HPM_P1;HPM_P2
2023/01/21 00:00:10;;;;;;;14.55;11.98;;;;;;;1.45;88.30;101235.97;6215176;23;20039;-71
2023/01/21 00:03:13;;;;;;;14.23;12.55;;;;;;;1.39;88.76;101236.84;6215057;23;20059;-71
2023/01/21 00:06:17;;;;;;;12.88;11.48;;;;;;;1.40;88.89;101238.53;6215211;23;20116;-72
2023/01/21 00:09:20;;;;;;;;;;;;;;;1.44;88.44;101242.84;6215633;23;20028;-71
2023/01/21 00:12:23;;;;;;;17.70;15.50;;;;;;;1.48;88.56;101239.38;6214965;23;19954;-72
2023/01/21 00:15:26;;;;;;;;;;;;;;;1.52;88.23;101248.81;6215443;23;20103;-72
2023/01/21 00:18:30;;;;;;;15.10;12.70;;;;;;;1.48;88.16;101254.84;6214920;23;19987;-72
2023/01/21 00:21:34;;;;;;;13.68;12.07;;;;;;;1.50;88.01;101255.72;6215427;23;20027;-71
2023/01/21 00:24:37;;;;;;;13.40;11.43;;;;;;;1.48;87.93;101269.47;6214931;23;20043;-72
2023/01/21 00:27:40;;;;;;;13.30;11.77;;;;;;;1.46;88.13;101264.28;6214364;23;20023;-72
2023/01/21 00:30:44;;;;;;;;;;;;;;;1.57;87.78;101277.16;6215379;23;20106;-72
2023/01/21 00:33:47;;;;;;;12.82;10.70;;;;;;;1.54;87.81;101277.19;6214898;23;19935;-72
2023/01/21 00:36:50;;;;;;;11.82;10.07;;;;;;;1.51;87.70;101278.03;6214880;23;20350;-72
2023/01/21 00:39:53;;;;;;;11.82;9.73;;;;;;;1.51;87.45;101280.63;6214775;23;20070;-71
2023/01/21 00:42:56;;;;;;;13.30;10.98;;;;;;;1.39;87.52;101290.94;6214480;23;20055;-72
2023/01/21 00:46:00;;;;;;;12.18;10.20;;;;;;;1.46;87.62;101290.06;6214428;23;20355;-72
2023/01/21 00:49:03;;;;;;;11.75;9.95;;;;;;;1.42;87.69;101296.09;6214700;23;20027;-72
2023/01/21 00:52:06;;;;;;;11.88;10.20;;;;;;;1.41;87.75;101299.53;6215031;23;20096;-71
2023/01/21 00:55:10;;;;;;;;;;;;;;;1.45;87.47;101302.97;6215229;23;20083;-71
2023/01/21 00:58:14;;;;;;;12.80;10.82;;;;;;;1.48;87.43;101314.13;6214534;23;20337;-71
2023/01/21 01:01:20;;;;;;;15.23;10.10;;;;;;;1.56;87.49;101316.66;6214559;23;20089;-71
2023/01/21 01:04:23;;;;;;;13.18;11.52;;;;;;;1.50;87.59;101320.16;6214661;23;20024;-71
2023/01/21 01:07:26;;;;;;;15.13;12.18;;;;;;;1.49;86.28;101321.00;6196154;23;20079;-70
2023/01/21 01:10:30;;;;;;;15.48;12.00;;;;;;;1.56;86.19;101330.44;6214526;23;20473;-71
2023/01/21 01:13:37;;;;;;;14.73;12.20;;;;;;;1.54;86.22;101331.31;6214469;23;20027;-71
2023/01/21 01:16:44;;;;;;;15.95;13.25;;;;;;;1.33;86.07;101339.91;6214368;23;20024;-71
2023/01/21 01:19:49;;;;;;;18.00;13.25;;;;;;;1.43;86.06;101339.03;6196086;23;20457;-72
2023/01/21 01:22:56;;;;;;;17.85;13.65;;;;;;;1.47;86.40;101345.91;6214383;23;20055;-72
2023/01/21 01:26:29;;;;;;;18.23;14.32;;;;;;;1.46;86.50;101354.50;6214382;23;20083;-72
2023/01/21 01:30:22;;;;;;;18.98;14.05;;;;;;;1.41;85.69;101360.53;6214343;23;20027;-72
2023/01/21 01:33:26;;;;;;;19.90;15.35;;;;;;;1.40;85.54;101362.22;6151730;23;20056;-72
2023/01/21 01:36:30;;;;;;;20.75;17.02;;;;;;;1.35;85.12;101371.69;6151708;23;20080;-71
2023/01/21 01:39:34;;;;;;;20.85;17.30;;;;;;;1.39;85.32;101383.72;6214145;23;20093;-72
2023/01/21 01:42:37;;;;;;;21.50;17.73;;;;;;;1.38;85.40;101387.16;6214158;23;20027;-72
2023/01/21 01:45:41;;;;;;;21.73;16.65;;;;;;;1.25;84.58;101390.59;6214194;23;20031;-72
2023/01/21 01:48:51;;;;;;;20.50;16.40;;;;;;;1.32;84.02;101397.47;6214385;23;20413;-72
2023/01/21 01:52:03;;;;;;;20.55;16.23;;;;;;;1.06;83.82;101400.03;6214321;23;20055;-72
2023/01/21 01:55:10;;;;;;;16.00;13.48;;;;;;;1.10;84.22;101402.59;6214192;23;20114;-72
2023/01/21 01:58:17;;;;;;;20.48;16.88;;;;;;;1.11;85.09;101419.78;6214155;23;20023;-73
2023/01/21 02:01:22;;;;;;;23.30;18.25;;;;;;;1.18;83.94;101423.22;6196160;23;20059;-72
2023/01/21 02:04:32;;;;;;;21.17;17.27;;;;;;;1.17;83.08;101418.94;6214196;23;20480;-72
2023/01/21 02:07:39;;;;;;;25.35;17.85;;;;;;;1.16;83.36;101436.09;6214264;23;20027;-72
2023/01/21 02:10:42;;;;;;;22.25;15.90;;;;;;;1.03;83.03;101433.53;6195614;23;20421;-72
2023/01/21 02:13:50;;;;;;;21.92;16.92;;;;;;;0.82;82.01;101435.19;6214094;23;20094;-72
2023/01/21 02:16:56;;;;;;;25.42;16.77;;;;;;;0.75;82.43;101443.75;6214150;23;20027;-72
2023/01/21 02:20:38;;;;;;;20.38;15.75;;;;;;;0.77;82.70;101454.06;6214177;23;20027;-72
2023/01/21 02:23:56;;;;;;;21.30;16.50;;;;;;;0.79;82.11;101460.06;6214032;23;20473;-73
2023/01/21 02:27:18;;;;;;;20.13;15.55;;;;;;;0.73;81.83;101467.75;6214364;23;20108;-73
2023/01/21 02:30:36;;;;;;;24.67;16.70;;;;;;;0.70;82.01;101471.19;6214109;23;20027;-72
2023/01/21 02:33:51;;;;;;;21.23;16.30;;;;;;;0.69;82.32;101477.19;6214059;23;20474;-70
2023/01/21 02:37:07;;;;;;;21.10;16.90;;;;;;;0.40;82.75;101484.78;6214142;23;20082;-70
2023/01/21 02:40:40;;;;;;;21.95;17.27;;;;;;;0.41;83.16;101487.34;6213891;23;20076;-69
2023/01/21 02:44:09;;;;;;;22.35;17.15;;;;;;;0.33;83.31;101489.06;6213808;23;20075;-69
2023/01/21 02:47:18;;;;;;;19.13;15.20;;;;;;;0.17;82.93;101498.41;6033654;23;20034;-70
2023/01/21 02:50:25;;;;;;;18.98;14.93;;;;;;;0.25;82.91;101497.56;6034705;23;20107;-69
2023/01/21 02:53:33;;;;;;;19.10;15.20;;;;;;;0.32;82.54;101495.06;6034853;23;20027;-69
2023/01/21 02:56:37;;;;;;;22.85;17.60;;;;;;;0.27;82.88;101501.03;6034856;23;20523;-69
2023/01/21 02:59:44;;;;;;;17.52;14.77;;;;;;;0.29;82.24;101501.88;6035052;23;20113;-69
2023/01/21 03:03:02;;;;;;;23.85;16.23;;;;;;;0.31;82.34;101501.03;6034846;23;20030;-69
2023/01/21 03:06:34;;;;;;;21.48;17.02;;;;;;;0.09;82.77;101515.47;6034968;23;20034;-69
2023/01/21 03:09:38;;;;;;;23.13;16.23;;;;;;;0.02;83.64;101513.72;6034933;23;20030;-69
2023/01/21 03:12:55;;;;;;;22.27;15.18;;;;;;;0.10;83.33;101522.34;6030352;23;20623;-69
2023/01/21 03:19:22;;;;;;;21.08;15.32;;;;;;;0.12;83.17;101520.63;6030619;23;20078;-69
2023/01/21 03:22:30;;;;;;;21.13;16.02;;;;;;;0.21;82.02;101525.84;6030062;23;20115;-69
2023/01/21 03:25:34;;;;;;;21.88;15.95;;;;;;;0.19;82.23;101527.56;6030644;23;20046;-69
2023/01/21 03:28:43;;;;;;;21.92;16.30;;;;;;;0.23;81.99;101531.88;6030837;23;20045;-72
2023/01/21 03:31:51;;;;;;;20.70;15.40;;;;;;;0.20;81.63;101536.13;6030697;23;20029;-72
2023/01/21 03:34:56;;;;;;;22.48;15.75;;;;;;;0.22;81.75;101537.00;6030365;23;20030;-72
2023/01/21 03:38:13;;;;;;;21.38;14.57;;;;;;;0.21;81.02;101541.28;6030731;23;20053;-72
2023/01/21 03:41:23;;;;;;;20.98;16.33;;;;;;;0.02;82.01;101538.56;6029498;23;20046;-72
2023/01/21 03:44:27;;;;;;;18.58;13.32;;;;;;;-0.12;81.89;101548.75;6039615;23;20034;-72
2023/01/21 03:47:37;;;;;;;21.33;15.48;;;;;;;-0.01;82.19;101554.84;6210632;23;20532;-73
2023/01/21 03:50:48;;;;;;;17.40;14.18;;;;;;;0.09;81.02;101551.47;6211265;23;20408;-72
2023/01/21 03:53:56;;;;;;;18.75;13.98;;;;;;;0.29;80.76;101561.03;6211080;23;20027;-72
2023/01/21 03:56:59;;;;;;;18.67;14.13;;;;;;;0.13;80.84;101560.09;6210822;23;20106;-73
2023/01/21 04:00:04;;;;;;;18.27;14.10;;;;;;;0.23;80.59;101555.03;6210547;23;20032;-72
2023/01/21 04:03:08;;;;;;;17.08;13.63;;;;;;;0.21;80.15;101567.00;6210812;23;20544;-72
2023/01/21 04:06:17;;;;;;;18.40;14.65;;;;;;;0.18;80.59;101561.81;6192303;23;20035;-72
2023/01/21 04:09:21;;;;;;;21.10;15.27;;;;;;;0.12;80.80;101572.06;6210843;23;20469;-72
2023/01/21 04:12:24;;;;;;;22.55;15.55;;;;;;;0.13;80.64;101578.97;6210411;23;20112;-72
2023/01/21 04:15:27;;;;;;;18.73;14.43;;;;;;;-0.01;80.78;101580.53;6210852;23;20052;-72
2023/01/21 04:18:31;;;;;;;17.33;13.38;;;;;;;0.01;80.92;101584.00;6210655;23;20109;-72
2023/01/21 04:21:35;;;;;;;19.48;15.35;;;;;;;-0.02;80.71;101589.97;6210848;23;20504;-72
2023/01/21 04:24:38;;;;;;;17.88;13.18;;;;;;;0.05;80.95;101595.16;6210377;23;20038;-73
2023/01/21 04:27:41;;;;;;;;;;;;;;;-0.02;81.80;101596.84;6211193;23;20036;-73
2023/01/21 04:30:48;;;;;;;19.27;14.45;;;;;;;0.04;80.67;101594.31;6210536;23;20472;-72
2023/01/21 04:33:51;;;;;;;19.73;15.63;;;;;;;0.13;80.87;101594.38;6210654;23;20027;-72
2023/01/21 04:36:54;;;;;;;18.02;14.55;;;;;;;0.19;80.84;101607.31;6210684;23;20024;-73
2023/01/21 04:39:57;;;;;;;19.80;14.77;;;;;;;0.17;80.92;101600.41;6209446;23;20038;-72
2023/01/21 04:43:21;;;;;;;17.58;15.07;;;;;;;0.21;80.34;101613.28;6209675;23;20103;-72
2023/01/21 04:46:26;;;;;;;19.58;14.98;;;;;;;0.18;80.44;101607.28;6209842;23;20386;-72
2023/01/21 04:49:37;;;;;;;20.15;13.98;;;;;;;0.15;80.99;101613.25;6174394;23;20070;-72
2023/01/21 04:52:43;;;;;;;18.38;14.57;;;;;;;0.09;80.95;101620.06;6192374;23;20031;-73
2023/01/21 04:55:51;;;;;;;19.65;15.30;;;;;;;0.18;80.68;101628.69;6210073;23;20027;-73
2023/01/21 04:58:55;;;;;;;20.05;15.23;;;;;;;0.04;80.36;101627.75;6190955;23;20512;-72
2023/01/21 05:01:58;;;;;;;20.58;14.70;;;;;;;0.01;80.64;101632.84;6210165;23;20074;-73
2023/01/21 05:05:01;;;;;;;18.10;14.93;;;;;;;0.09;80.20;101627.78;6210186;23;20374;-72
2023/01/21 05:08:05;;;;;;;20.20;15.00;;;;;;;0.17;80.45;101631.28;6210213;23;20066;-72
2023/01/21 05:11:10;;;;;;;;;;;;;;;0.28;80.53;101633.94;6209813;23;20059;-72
2023/01/21 05:14:13;;;;;;;16.80;12.98;;;;;;;0.15;79.90;101641.53;6209702;23;20357;-72
2023/01/21 05:17:16;;;;;;;19.05;14.43;;;;;;;0.20;80.18;101641.59;6209951;23;20097;-72
2023/01/21 05:32:14;;;;;;;20.95;16.63;;;;;;;-0.02;80.68;101645.69;4771751;27;10001576;-70
2023/01/21 05:35:23;;;;;;;18.77;14.60;;;;;;;0.09;80.98;101649.19;5126025;27;20050;-70
2023/01/21 05:38:27;;;;;;;18.73;15.45;;;;;;;0.00;81.80;101651.72;5125011;27;20050;-70
2023/01/21 05:41:30;;;;;;;19.88;15.15;;;;;;;0.17;81.54;101659.56;5124784;27;20046;-70
2023/01/21 05:44:33;;;;;;;21.52;15.73;;;;;;;0.12;81.73;101664.66;5124642;27;20057;-70
2023/01/21 05:47:37;;;;;;;18.33;14.02;;;;;;;0.14;81.66;101656.97;5124257;27;20169;-70
2023/01/21 05:50:40;;;;;;;21.10;16.20;;;;;;;0.20;81.82;101655.31;5125825;27;20070;-70
2023/01/21 05:53:43;;;;;;;19.17;15.05;;;;;;;0.18;81.71;101662.13;5126282;27;20054;-70
2023/01/21 05:56:47;;;;;;;20.20;15.50;;;;;;;0.17;81.89;101672.44;5126340;28;20470;-70
2023/01/21 05:59:50;;;;;;;20.38;15.50;;;;;;;0.17;81.96;101672.44;5124081;27;20050;-71
2023/01/21 06:02:53;;;;;;;;;;;;;;;0.11;82.36;101675.81;5124479;27;20084;-70
2023/01/21 06:05:56;;;;;;;20.00;15.52;;;;;;;0.02;82.68;101673.13;4410365;27;10000688;-72
2023/01/21 06:09:00;;;;;;;18.40;14.90;;;;;;;0.02;82.45;101677.44;5103727;28;20051;-71
2023/01/21 06:12:03;;;;;;;19.95;15.73;;;;;;;0.02;82.96;101686.00;5104070;28;20454;-71
2023/01/21 06:15:07;;;;;;;18.02;14.07;;;;;;;-0.09;83.51;101690.19;5096316;28;20067;-72
2023/01/21 06:18:10;;;;;;;19.27;14.70;;;;;;;-0.28;84.50;101689.13;5108775;28;20047;-71
2023/01/21 06:21:14;;;;;;;19.85;15.88;;;;;;;-0.39;84.21;101693.28;5108512;28;20066;-71
2023/01/21 06:24:17;;;;;;;18.45;14.65;;;;;;;-0.33;84.09;101691.63;5108704;28;20573;-72
2023/01/21 06:27:20;;;;;;;23.67;16.13;;;;;;;-0.38;83.99;101698.44;5108593;28;20111;-71
2023/01/21 06:30:25;;;;;;;22.40;16.85;;;;;;;-0.54;84.45;101704.25;5108342;28;20050;-71
2023/01/21 06:33:28;;;;;;;23.25;17.00;;;;;;;-0.64;84.99;101710.94;5094543;28;20051;-71
2023/01/21 06:36:31;;;;;;;20.25;15.95;;;;;;;-0.79;84.69;101711.63;5093551;28;20050;-70
2023/01/21 06:39:35;;;;;;;23.95;16.35;;;;;;;-0.81;84.63;101710.75;5109155;28;20511;-70
2023/01/21 06:42:38;;;;;;;;;;;;;;;-0.78;84.56;101715.91;5114270;28;20081;-71
2023/01/21 06:45:47;;;;;;;21.75;16.25;;;;;;;-1.06;83.77;101718.94;5101175;28;20056;-72
2023/01/21 06:48:52;;;;;;;22.08;15.32;;;;;;;-1.26;83.05;101716.94;5104588;28;20057;-70
2023/01/21 06:51:58;;;;;;;23.80;16.02;;;;;;;-1.17;82.79;101714.53;5093981;28;20059;-71
2023/01/21 06:55:04;;;;;;;24.13;15.73;;;;;;;-1.04;82.08;101725.84;5102583;28;20061;-71
2023/01/21 06:58:07;;;;;;;22.25;15.32;;;;;;;-1.41;82.21;101725.25;5099005;28;20050;-70
2023/01/21 07:01:10;;;;;;;20.77;14.55;;;;;;;-1.55;81.18;101728.44;5099757;28;20385;-70
2023/01/21 07:04:14;;;;;;;23.80;16.70;;;;;;;-1.66;81.59;101734.28;5096637;28;20146;-71
2023/01/21 07:07:17;;;;;;;19.65;14.75;;;;;;;-1.86;81.69;101748.41;5096104;28;20081;-69
2023/01/21 07:10:22;;;;;;;21.08;16.67;;;;;;;-2.04;81.90;101756.66;5093422;28;20153;-69
2023/01/21 07:13:26;;;;;;;19.80;14.82;;;;;;;-1.92;81.50;101756.00;5094310;28;20109;-69
2023/01/21 07:16:30;;;;;;;17.30;13.90;;;;;;;-2.17;81.20;101757.22;5109491;28;20034;-69
2023/01/21 07:19:34;;;;;;;20.40;14.50;;;;;;;-2.23;81.30;101767.38;5113390;28;20457;-69
2023/01/21 07:22:38;;;;;;;18.60;14.52;;;;;;;-2.20;81.32;101770.84;5114175;28;20113;-69
2023/01/21 07:25:41;;;;;;;17.90;13.88;;;;;;;-2.11;81.21;101772.72;5114052;28;20066;-70
2023/01/21 07:28:45;;;;;;;17.52;12.55;;;;;;;-2.26;80.83;101773.28;5113556;28;20050;-69
2023/01/21 07:32:20;;;;;;;21.35;13.98;;;;;;;-2.27;80.71;101779.22;5110448;28;20557;-69
2023/01/21 07:35:52;;;;;;;21.63;14.82;;;;;;;-2.29;80.59;101786.03;5114198;28;20043;-68
2023/01/21 07:39:26;;;;;;;17.15;11.77;;;;;;;-2.35;80.67;101788.47;5104603;28;20035;-69
2023/01/21 07:42:31;;;;;;;18.25;12.18;;;;;;;-2.25;80.08;101804.91;5113857;28;20046;-77
2023/01/21 07:45:35;;;;;;;20.38;11.27;;;;;;;-1.93;80.89;101811.53;5112690;28;20109;-70
2023/01/21 07:48:38;;;;;;;15.18;11.27;;;;;;;-1.80;78.28;101812.63;5113851;28;20043;-70
2023/01/21 07:51:46;;;;;;;15.63;11.60;;;;;;;-1.62;77.05;101811.25;5113794;28;20111;-71
2023/01/21 07:54:49;;;;;;;15.65;11.32;;;;;;;-1.46;76.95;101818.41;5113828;28;20055;-68
2023/01/21 07:57:56;;;;;;;16.05;11.55;;;;;;;-1.59;76.14;101816.44;5113591;28;20054;-68
2023/01/21 08:01:06;;;;;;;16.05;12.38;;;;;;;-1.38;75.70;101821.94;5113672;28;20572;-68
2023/01/21 08:04:13;;;;;;;18.05;12.60;;;;;;;-1.57;75.88;101820.75;5113691;28;20527;-67
2023/01/21 08:07:16;;;;;;;14.80;11.70;;;;;;;-1.59;75.83;101831.84;5113885;28;20094;-68
2023/01/21 08:10:21;;;;;;;17.70;11.45;;;;;;;-1.48;76.00;101835.44;5113847;28;20127;-68
2023/01/21 08:13:24;;;;;;;18.83;12.10;;;;;;;-1.06;75.50;101830.19;5113095;28;20092;-68
2023/01/21 08:16:28;;;;;;;20.20;14.32;;;;;;;-1.02;75.44;101841.34;5112937;28;20137;-68
2023/01/21 08:19:31;;;;;;;16.63;13.55;;;;;;;-0.99;76.15;101839.72;5113306;28;20408;-69
2023/01/21 08:22:35;;;;;;;19.40;15.05;;;;;;;-1.16;75.88;101836.00;5100306;28;20051;-69
2023/01/21 08:26:00;;;;;;;19.30;14.20;;;;;;;-0.89;76.39;101838.19;5092216;28;20043;-71
2023/01/21 08:29:03;;;;;;;20.20;14.93;;;;;;;-0.76;76.55;101840.09;5092508;28;20097;-69
2023/01/21 08:32:06;;;;;;;18.15;13.38;;;;;;;-0.46;75.95;101836.22;5090661;28;20087;-69
2023/01/21 08:35:10;;;;;;;22.33;15.50;;;;;;;-0.52;76.17;101843.84;5091007;28;20050;-67
2023/01/21 08:38:19;;;;;;;20.30;14.85;;;;;;;-0.61;76.91;101846.28;5089779;28;20432;-71
2023/01/21 08:41:24;;;;;;;21.55;16.02;;;;;;;-0.36;76.57;101848.34;5090502;28;20546;-69
2023/01/21 08:44:29;;;;;;;21.73;16.17;;;;;;;-0.19;76.14;101853.75;5091102;28;20113;-68
2023/01/21 08:47:33;;;;;;;20.33;15.68;;;;;;;-0.16;76.49;101848.66;5092432;28;20046;-68
2023/01/21 08:50:39;;;;;;;23.75;17.95;;;;;;;-0.42;77.35;101855.13;5090999;28;20043;-71
2023/01/21 08:53:42;;;;;;;22.83;17.05;;;;;;;-0.25;77.10;101856.25;5092560;28;20089;-70
2023/01/21 08:56:46;;;;;;;20.88;16.00;;;;;;;-0.16;77.44;101855.47;5092292;28;20042;-70
2023/01/21 09:00:21;;;;;;;19.77;14.43;;;;;;;-0.15;76.00;101859.78;5092177;28;20499;-69
2023/01/21 09:03:34;;;;;;;19.52;15.00;;;;;;;-0.33;76.44;101862.97;5091983;28;20050;-69
2023/01/21 09:06:47;;;;;;;23.17;16.83;;;;;;;-0.10;76.14;101863.28;5092259;28;20487;-70
2023/01/21 09:09:51;;;;;;;22.42;15.65;;;;;;;-0.14;76.67;101862.38;5091954;28;20046;-69
2023/01/21 09:12:54;;;;;;;;;;;;;;;0.10;75.56;101854.13;5092531;28;20375;-69
2023/01/21 09:15:59;;;;;;;24.92;19.33;;;;;;;0.10;75.11;101851.53;5091706;28;20330;-69
2023/01/21 09:19:04;;;;;;;21.45;16.33;;;;;;;-0.35;75.89;101857.81;5091450;28;20074;-69
2023/01/21 09:22:08;;;;;;;24.05;16.27;;;;;;;-0.15;76.69;101864.94;5090829;28;20093;-69
2023/01/21 09:25:11;;;;;;;23.73;17.75;;;;;;;-0.02;76.38;101871.97;5092044;28;20113;-69
2023/01/21 09:28:16;;;;;;;26.23;19.50;;;;;;;-0.78;78.65;101870.00;5092157;28;20524;-69
2023/01/21 09:31:22;;;;;;;27.02;19.00;;;;;;;-0.49;78.83;101872.16;5091655;28;20111;-69
2023/01/21 09:34:25;;;;;;;25.77;17.58;;;;;;;-0.75;78.93;101877.75;5091768;28;20108;-69
2023/01/21 09:37:29;;;;;;;26.02;20.25;;;;;;;-0.55;79.62;101879.78;5091712;28;20089;-68
2023/01/21 09:40:34;;;;;;;23.92;17.45;;;;;;;-0.72;79.89;101882.94;5091016;28;20043;-68
2023/01/21 09:44:04;;;;;;;24.08;17.05;;;;;;;-0.50;79.82;101888.44;5091344;28;20463;-69
2023/01/21 09:47:24;;;;;;;23.48;16.90;;;;;;;-0.41;79.53;101892.84;5076840;28;20082;-69
2023/01/21 09:50:30;;;;;;;27.23;18.60;;;;;;;0.03;78.45;101885.72;5089651;28;20554;-70
2023/01/21 09:53:49;;;;;;;22.58;16.42;;;;;;;-0.10;78.16;101894.13;5091909;28;20066;-70
2023/01/21 09:57:27;;;;;;;21.08;15.23;;;;;;;0.28;77.74;101897.19;5091291;28;20077;-69
2023/01/21 10:00:42;;;;;;;21.75;15.43;;;;;;;0.66;75.24;101900.19;5091432;28;20058;-69
2023/01/21 10:04:01;;;;;;;25.27;15.43;;;;;;;0.55;74.13;101901.78;5091379;28;20055;-68
2023/01/21 10:07:17;;;;;;;18.73;14.65;;;;;;;0.25;74.39;101901.44;5091857;28;20523;-68
2023/01/21 10:10:32;;;;;;;21.23;15.48;;;;;;;0.37;74.61;101905.00;5095377;28;20092;-68
2023/01/21 10:14:02;;;;;;;21.08;15.25;;;;;;;0.64;74.89;101907.06;5095134;28;20603;-69
2023/01/21 10:17:20;;;;;;;21.08;15.40;;;;;;;0.76;74.52;101902.84;5094760;28;20193;-68
2023/01/21 10:20:26;;;;;;;21.85;14.20;;;;;;;0.91;73.86;101910.75;5094958;28;20047;-68
2023/01/21 10:23:41;;;;;;;19.88;14.32;;;;;;;0.97;73.40;101903.06;5094860;28;20098;-68
2023/01/21 10:26:50;;;;;;;17.02;12.60;;;;;;;0.97;71.39;101899.66;5095297;28;20082;-68
2023/01/21 10:30:02;;;;;;;22.48;15.20;;;;;;;0.78;72.01;101908.91;5094368;28;20535;-69
2023/01/21 10:33:23;;;;;;;18.35;13.63;;;;;;;0.81;72.31;101908.94;5094202;28;20097;-69
2023/01/21 10:36:33;;;;;;;21.98;14.68;;;;;;;0.56;72.54;101913.81;5189718;22;20129;-75
2023/01/21 10:49:43;;;;;;;22.08;15.15;;;;;;;1.21;73.51;101904.13;5093550;28;20110;-74
2023/01/21 10:53:18;;;;;;;18.48;13.23;;;;;;;1.42;72.75;101909.47;5094034;28;20062;-74
2023/01/21 10:57:09;;;;;;;36.42;14.73;;;;;;;1.43;71.39;101906.03;5095365;28;20059;-74
2023/01/21 11:00:43;;;;;;;19.73;12.57;;;;;;;1.22;70.82;101908.47;5094913;28;20051;-75
2023/01/21 11:03:54;;;;;;;;;;;;;;;1.06;72.24;101899.72;5095228;28;20050;-74
2023/01/21 11:07:49;;;;;;;27.00;17.42;;;;;;;1.20;73.41;101892.09;5094035;28;19961;-75
2023/01/21 11:10:54;;;;;;;23.02;16.80;;;;;;;1.21;72.58;101888.66;5069786;28;20119;-75
2023/01/21 11:14:01;;;;;;;23.85;18.08;;;;;;;1.14;72.84;101896.34;5080247;28;20120;-79
2023/01/21 11:17:45;;;;;;;20.55;16.23;;;;;;;1.49;73.99;101890.59;5092432;28;20054;-79
2023/01/21 11:22:11;;;;;;;34.55;23.23;;;;;;;1.42;73.00;101883.69;5093202;28;20047;-77
2023/01/21 11:25:42;;;;;;;54.42;28.50;;;;;;;1.31;73.32;101890.50;5111397;28;20133;-78
2023/01/21 11:28:47;;;;;;;23.13;15.27;;;;;;;1.33;73.82;101888.78;5114241;28;20447;-78
2023/01/21 11:32:04;;;;;;;20.40;12.57;;;;;;;1.19;74.00;101890.41;5114831;28;20050;-79
2023/01/21 11:35:22;;;;;;;18.85;11.35;;;;;;;1.06;73.16;101894.56;5115027;28;20085;-78
2023/01/21 11:38:28;;;;;;;27.33;14.07;;;;;;;1.24;72.82;101886.13;5317469;22;20112;-67
2023/01/21 11:41:32;;;;;;;17.52;11.85;;;;;;;1.42;72.04;101888.84;5090125;28;20409;-71
2023/01/21 11:44:50;;;;;;;21.58;12.35;;;;;;;1.79;72.15;101883.94;5093779;28;20055;-69
2023/01/21 11:48:44;;;;;;;21.48;14.60;;;;;;;1.72;70.99;101888.16;5110108;28;20046;-68
2023/01/21 11:51:47;;;;;;;17.92;12.23;;;;;;;1.76;71.14;101889.09;5113350;28;20050;-67
2023/01/21 11:54:51;;;;;;;16.23;11.07;;;;;;;1.59;71.62;101887.22;5088880;28;20065;-68
2023/01/21 11:57:55;;;;;;;21.80;11.18;;;;;;;1.04;73.01;101897.13;5113197;28;20127;-70
2023/01/21 12:01:23;;;;;;;17.63;12.95;;;;;;;0.31;75.56;101886.06;5113078;28;20416;-69
2023/01/21 12:04:27;;;;;;;20.10;13.60;;;;;;;0.85;75.91;101895.22;5113094;28;20553;-69
2023/01/21 12:07:36;;;;;;;19.80;14.55;;;;;;;0.93;75.56;101891.88;5080287;28;20082;-69
2023/01/21 12:10:44;;;;;;;20.38;12.65;;;;;;;1.07;74.61;101897.16;5059752;28;20524;-72
2023/01/21 12:13:57;;;;;;;20.08;12.82;;;;;;;1.15;73.74;101880.06;5072419;28;20054;-69
2023/01/21 12:17:35;;;;;;;21.73;14.55;;;;;;;1.41;74.21;101887.13;5076870;28;20062;-69
2023/01/21 12:20:53;;;;;;;18.42;13.20;;;;;;;1.35;72.50;101884.50;5086658;28;20047;-70
2023/01/21 12:24:13;;;;;;;22.60;15.13;;;;;;;1.07;74.56;101881.69;5092291;28;20054;-68
2023/01/21 12:27:22;;;;;;;22.77;14.75;;;;;;;1.24;75.38;101883.53;5089381;28;20047;-68
2023/01/21 12:31:03;;;;;;;23.88;14.75;;;;;;;1.11;75.24;101883.44;5091569;28;20051;-69
2023/01/21 12:34:31;;;;;;;17.80;12.73;;;;;;;1.27;75.96;101868.97;5087561;28;20093;-73
2023/01/21 12:37:37;;;;;;;18.75;13.75;;;;;;;1.17;75.80;101885.22;5102750;28;20038;-77
2023/01/21 12:40:56;;;;;;;30.00;13.13;;;;;;;1.24;74.61;101881.81;5127797;27;20095;-75
2023/01/21 12:44:25;;;;;;;26.25;17.88;;;;;;;1.43;75.23;101882.81;5124430;27;20244;-71
2023/01/21 12:47:42;;;;;;;21.00;14.45;;;;;;;1.72;73.62;101880.44;5120943;27;20062;-70
2023/01/21 12:50:52;;;;;;;21.33;12.32;;;;;;;1.69;73.40;101877.88;5117959;27;20084;-70
2023/01/21 12:54:19;;;;;;;18.55;12.55;;;;;;;1.72;73.06;101877.00;5129821;27;20042;-71
2023/01/21 12:57:30;;;;;;;18.20;14.00;;;;;;;1.81;73.57;101882.22;5107109;27;20475;-73
2023/01/21 13:00:37;;;;;;;19.75;14.30;;;;;;;1.80;72.81;101888.22;5121242;27;20128;-72
2023/01/21 13:04:10;;;;;;;20.02;14.25;;;;;;;1.88;72.47;101891.69;5108056;27;20579;-71
2023/01/21 13:07:26;;;;;;;19.20;13.55;;;;;;;1.77;73.45;101889.06;5122948;27;20089;-70
2023/01/21 13:10:34;;;;;;;20.38;13.50;;;;;;;1.83;72.31;101896.00;5114469;27;20086;-70
2023/01/21 13:13:44;;;;;;;18.27;12.70;;;;;;;1.76;73.75;101894.25;5117562;28;20136;-71
2023/01/21 13:16:53;;;;;;;17.70;12.90;;;;;;;1.72;73.98;101900.22;5118546;27;20112;-73
2023/01/21 13:19:58;;;;;;;16.52;12.95;;;;;;;1.44;74.53;101902.63;5105117;28;20126;-71
2023/01/21 13:23:25;;;;;;;23.75;15.32;;;;;;;1.50;76.14;101900.09;5096269;28;20035;-72
2023/01/21 13:26:40;;;;;;;20.38;15.57;;;;;;;1.85;75.53;101889.09;5109982;28;20050;-71
2023/01/21 13:30:13;;;;;;;23.95;17.20;;;;;;;1.91;74.70;101890.88;5064803;28;20039;-71
2023/01/21 13:33:46;;;;;;;20.73;14.00;;;;;;;1.95;73.89;101900.38;5102054;28;20046;-71
2023/01/21 13:37:23;;;;;;;18.73;13.13;;;;;;;1.80;73.55;101911.44;5103143;28;20047;-72
2023/01/21 13:40:39;;;;;;;21.08;15.55;;;;;;;1.68;73.98;101906.22;5122277;27;20110;-71
2023/01/21 13:43:55;;;;;;;19.95;14.95;;;;;;;1.63;76.98;101909.63;5132040;27;20084;-69
2023/01/21 13:47:14;;;;;;;19.98;16.08;;;;;;;1.62;77.45;101907.88;5126724;27;20051;-71
2023/01/21 13:50:28;;;;;;;42.75;33.05;;;;;;;1.51;77.81;101916.41;5133311;27;20075;-70
2023/01/21 13:54:02;;;;;;;23.13;15.40;;;;;;;1.66;77.43;101905.31;5095522;28;20050;-71
2023/01/21 13:57:05;;;;;;;18.33;12.85;;;;;;;1.65;77.39;101906.19;5124721;27;20081;-71
2023/01/21 14:00:25;;;;;;;24.02;18.63;;;;;;;1.65;77.81;101917.34;5134005;27;20046;-70
2023/01/21 14:03:55;;;;;;;18.08;12.90;;;;;;;1.40;78.98;101913.72;5095504;27;20412;-69
2023/01/21 14:07:23;;;;;;;13.38;9.85;;;;;;;1.66;77.81;101924.25;5124024;27;20053;-69
2023/01/21 14:10:41;;;;;;;13.90;9.85;;;;;;;1.68;76.70;101917.38;5116287;27;20503;-70
2023/01/21 14:14:24;;;;;;;13.10;9.40;;;;;;;1.66;77.62;101937.16;5131311;27;20050;-67
2023/01/21 14:17:54;;;;;;;10.63;8.02;;;;;;;1.71;78.37;101921.69;5032787;28;20118;-69
2023/01/21 14:21:13;;;;;;;19.60;11.52;;;;;;;1.67;78.68;101912.22;5026323;28;20082;-69
2023/01/21 14:24:42;;;;;;;14.95;10.38;;;;;;;1.58;77.95;101926.75;5109381;27;20134;-69
2023/01/21 14:28:08;;;;;;;13.30;8.93;;;;;;;1.57;78.32;101927.63;5129363;27;20095;-67
2023/01/21 14:31:11;;;;;;;13.93;9.18;;;;;;;1.49;79.30;101926.69;5096390;27;20047;-68
2023/01/21 14:34:27;;;;;;;;;;;;;;;1.49;79.70;101937.00;5124205;27;20058;-69
2023/01/21 14:37:37;;;;;;;12.32;8.95;;;;;;;1.52;80.11;101925.88;5107384;28;19996;-69
2023/01/21 14:40:50;;;;;;;14.30;9.02;;;;;;;1.43;81.17;101921.50;5109818;27;20173;-69
2023/01/21 14:43:54;;;;;;;12.95;9.57;;;;;;;1.55;80.28;101910.41;5128245;27;20042;-69
2023/01/21 14:47:18;;;;;;;15.25;11.43;;;;;;;1.49;81.00;101900.91;5113695;27;20091;-68
2023/01/21 14:50:45;;;;;;;16.95;12.35;;;;;;;1.54;79.04;101906.97;5118141;27;20431;-68
2023/01/21 14:53:58;;;;;;;17.33;11.90;;;;;;;1.55;79.93;101915.56;5110219;28;20088;-69
2023/01/21 14:57:05;;;;;;;14.23;9.65;;;;;;;1.58;80.54;101908.72;5105322;27;20050;-69
2023/01/21 15:00:20;;;;;;;12.98;8.82;;;;;;;1.68;80.42;101906.22;5121769;27;20058;-70
2023/01/21 15:03:30;;;;;;;14.02;10.25;;;;;;;1.60;80.23;101914.75;5128610;27;20109;-70
2023/01/21 15:06:37;;;;;;;11.35;8.85;;;;;;;1.54;80.79;101925.03;5113555;27;20054;-70